Andrew J. Barberi — WYR3370 — position and weather

sailwx.info

Track history (hours):
 
Tides and Currents Weather Stations Pressure Air Temp Water Temp Dewpoint Dewpoint Depression Visibility Wind Speed Wind Dir Waves Ship Positions

Andrew J. Barberi

Owner: CITY OF NEW YORK, Brooklyn, NY. More information available from US FCC via Universal Licensing System and Coast Guard Vessel Documentation Center.

Last reported at 2015-Aug-03 10:33 UTC. Time now 2015-Aug-03 10:40 UTC.
Position N 40°42' W 074°01'.

Length 94 m; draft 4.3 m.

Type: Ship. MMSI: 367000150.

Date/timePositionNaut miles runAvg speedWind from/ knotsBaromVisibWave heightAir tempDewpointWater temp
2015-Aug-03 10:33N 40°42' W 074°01'4 4.2
2015-Aug-03 09:33N 40°39' W 074°04'0 0.0
2015-Aug-03 08:32N 40°39' W 074°04'0 0.0
2015-Aug-03 07:33N 40°39' W 074°04'0 0.0
2015-Aug-03 06:33N 40°39' W 074°04'0 0.0
2015-Aug-03 05:33N 40°39' W 074°04'0 0.0
2015-Aug-03 04:33N 40°39' W 074°04'0 0.0
2015-Aug-03 03:33N 40°39' W 074°04'0 0.0
2015-Aug-03 02:33N 40°39' W 074°04'0 0.0
2015-Aug-03 01:33N 40°39' W 074°04'0 0.0
2015-Aug-03 00:33N 40°39' W 074°04'0 0.2
2015-Aug-02 23:34N 40°39' W 074°04'0 0.1
2015-Aug-02 22:33N 40°39' W 074°04'0 0.0
2015-Aug-02 21:34N 40°39' W 074°04'4 4.2
2015-Aug-02 20:33N 40°42' W 074°01'4 4.3
2015-Aug-02 19:33N 40°39' W 074°04'0 0.1
2015-Aug-02 18:33N 40°39' W 074°04'4 4.2
2015-Aug-02 17:33N 40°42' W 074°01'4 4.3
2015-Aug-02 16:33N 40°39' W 074°04'0 0.1
2015-Aug-02 15:33N 40°39' W 074°04'0 0.1
2015-Aug-02 14:33N 40°39' W 074°04'0 0.0
2015-Aug-02 13:33N 40°39' W 074°04'0 0.0
2015-Aug-02 12:33N 40°39' W 074°04'0 0.0
2015-Aug-02 11:33N 40°39' W 074°04'0 0.0
2015-Aug-02 10:33N 40°39' W 074°04'0 0.0
2015-Aug-02 09:33N 40°39' W 074°04'0 0.0
2015-Aug-02 08:33N 40°39' W 074°04'0 0.0
2015-Aug-02 07:33N 40°39' W 074°04'0 0.0
2015-Aug-02 06:33N 40°39' W 074°04'0 0.0
2015-Aug-02 05:33N 40°39' W 074°04'0 0.0
2015-Aug-02 04:33N 40°39' W 074°04'0 0.0
2015-Aug-02 03:33N 40°39' W 074°04'0 0.0
2015-Aug-02 02:33N 40°39' W 074°04'0 0.0
2015-Aug-02 01:33N 40°39' W 074°04'0 0.2
2015-Aug-02 00:34N 40°39' W 074°04'0 0.2
2015-Aug-01 23:33N 40°39' W 074°04'0 0.0
2015-Aug-01 22:33N 40°39' W 074°04'0 0.2
2015-Aug-01 21:33N 40°39' W 074°04'0 0.1
2015-Aug-01 20:33N 40°39' W 074°04'0 0.1
2015-Aug-01 19:33N 40°39' W 074°04'0 0.0
2015-Aug-01 18:33N 40°39' W 074°04'4 4.2
2015-Aug-01 17:33N 40°42' W 074°01'4 4.3
2015-Aug-01 16:33N 40°39' W 074°04'0 0.1
2015-Aug-01 15:34N 40°39' W 074°04'0 0.2
2015-Aug-01 14:34N 40°39' W 074°04'0 0.0
2015-Aug-01 13:33N 40°39' W 074°04'0 0.0
2015-Aug-01 12:33N 40°39' W 074°04'0 0.0
2015-Aug-01 11:33N 40°39' W 074°04'0 0.0
2015-Aug-01 10:33N 40°39' W 074°04'0 0.0
2015-Aug-01 09:33N 40°39' W 074°04'0 0.0
2015-Aug-01 08:33N 40°39' W 074°04'0 0.0
2015-Aug-01 07:33N 40°39' W 074°04'0 0.0
2015-Aug-01 06:33N 40°39' W 074°04'0 0.0
2015-Aug-01 05:33N 40°39' W 074°04'0 0.0
2015-Aug-01 04:33N 40°39' W 074°04'0 0.0
2015-Aug-01 03:33N 40°39' W 074°04'0 0.0
2015-Aug-01 02:33N 40°39' W 074°04'0 0.0
2015-Aug-01 01:33N 40°39' W 074°04'0 0.1
2015-Aug-01 00:33N 40°39' W 074°04'4 4.0
2015-Jul-31 23:28N 40°42' W 074°01'0 0.0
2015-Jul-31 22:28N 40°42' W 074°01'0 0.1
2015-Jul-31 21:33N 40°42' W 074°01'1 1.2
2015-Jul-31 20:33N 40°41' W 074°02'3 3.1
2015-Jul-31 19:34N 40°39' W 074°04'0 0.1
2015-Jul-31 18:33N 40°39' W 074°04'0 0.1
2015-Jul-31 17:33N 40°39' W 074°04'0 0.1
2015-Jul-31 16:34N 40°39' W 074°04'0 0.2
2015-Jul-31 15:34N 40°39' W 074°04'0 0.0
2015-Jul-31 14:33N 40°39' W 074°04'4 3.9
2015-Jul-31 13:33N 40°42' W 074°01'0 0.1
2015-Jul-31 12:34N 40°42' W 074°01'0 0.1
2015-Jul-31 11:34N 40°42' W 074°01'0 0.1
2015-Jul-31 10:34N 40°42' W 074°01'4 4.2
2015-Jul-31 09:33N 40°39' W 074°04'0 0.0
2015-Jul-31 08:33N 40°39' W 074°04'0 0.0
2015-Jul-31 07:32N 40°39' W 074°04'0 0.0
2015-Jul-31 06:32N 40°39' W 074°04'0 0.0
2015-Jul-31 05:32N 40°39' W 074°04'0 0.0
2015-Jul-31 04:32N 40°39' W 074°04'0 0.0
2015-Jul-31 03:32N 40°39' W 074°04'0 0.0
2015-Jul-31 02:32N 40°39' W 074°04'4 2.2
2015-Jul-31 00:33N 40°42' W 074°01'4 4.3
2015-Jul-30 23:33N 40°39' W 074°04'0 0.1
2015-Jul-30 22:31N 40°39' W 074°04'0 0.0
2015-Jul-30 21:33N 40°39' W 074°04'4 4.3
2015-Jul-30 20:33N 40°42' W 074°01'0 0.1
2015-Jul-30 19:33N 40°42' W 074°01'4 2.1
2015-Jul-30 17:33N 40°39' W 074°04'4 4.2
2015-Jul-30 16:33N 40°42' W 074°01'0 0.0
2015-Jul-30 15:33N 40°42' W 074°01'4 4.3
2015-Jul-30 14:33N 40°39' W 074°04'4 4.3
2015-Jul-30 13:34N 40°42' W 074°01'0 0.0
2015-Jul-30 12:33N 40°42' W 074°01'0 0.1
2015-Jul-30 11:34N 40°42' W 074°01'0 0.0
2015-Jul-30 10:33N 40°42' W 074°01'4 4.1
2015-Jul-30 09:33N 40°39' W 074°04'0 0.0
2015-Jul-30 07:31N 40°39' W 074°04'0 0.0
2015-Jul-30 06:31N 40°39' W 074°04'0 0.0
2015-Jul-30 05:31N 40°39' W 074°04'0 0.0
2015-Jul-30 04:31N 40°39' W 074°04'0 0.0
2015-Jul-30 03:31N 40°39' W 074°04'0 0.0
2015-Jul-30 02:31N 40°39' W 074°04'0 0.0
2015-Jul-30 01:33N 40°39' W 074°04'4 4.3
2015-Jul-30 00:33N 40°42' W 074°01'4 2.0
2015-Jul-29 22:26N 40°39' W 074°04'0 0.1
2015-Jul-29 21:34N 40°39' W 074°04'4 4.3
2015-Jul-29 20:34N 40°42' W 074°01'0 0.0
2015-Jul-29 19:33N 40°42' W 074°01'4 4.3
2015-Jul-29 18:33N 40°39' W 074°04'0 0.2
2015-Jul-29 17:33N 40°39' W 074°04'4 4.2
2015-Jul-29 16:34N 40°42' W 074°01'0 0.0
2015-Jul-29 15:34N 40°42' W 074°01'4 4.3
2015-Jul-29 14:33N 40°39' W 074°04'4 4.3
2015-Jul-29 13:34N 40°42' W 074°01'0 0.0
2015-Jul-29 12:33N 40°42' W 074°01'0 0.1
2015-Jul-29 11:33N 40°42' W 074°01'0 0.0
2015-Jul-29 10:33N 40°42' W 074°01'4 4.4
2015-Jul-29 09:34N 40°38' W 074°04'1 0.7
2015-Jul-29 08:33N 40°39' W 074°04'0 0.0
2015-Jul-29 07:33N 40°39' W 074°04'0 0.0
2015-Jul-29 06:33N 40°39' W 074°04'0 0.0
2015-Jul-29 05:33N 40°39' W 074°04'0 0.0
2015-Jul-29 04:33N 40°39' W 074°04'0 0.0
2015-Jul-29 03:33N 40°39' W 074°04'0 0.0
2015-Jul-29 02:33N 40°39' W 074°04'0 0.0
2015-Jul-29 01:33N 40°39' W 074°04'4 4.2
2015-Jul-29 00:34N 40°42' W 074°01'4 4.2
2015-Jul-28 23:33N 40°39' W 074°04'0 0.0
2015-Jul-28 22:29N 40°39' W 074°04'0 0.1
2015-Jul-28 21:29N 40°39' W 074°04'4 4.6
2015-Jul-28 20:34N 40°42' W 074°01'0 0.0
2015-Jul-28 19:33N 40°42' W 074°01'4 3.9
2015-Jul-28 18:27N 40°39' W 074°04'0 0.2
2015-Jul-28 17:33N 40°39' W 074°04'4 4.1
2015-Jul-28 16:33N 40°42' W 074°01'4 4.3
2015-Jul-28 15:33N 40°39' W 074°04'0 0.1
2015-Jul-28 14:33N 40°39' W 074°04'4 4.2
2015-Jul-28 13:33N 40°42' W 074°01'0 0.0
2015-Jul-28 12:34N 40°42' W 074°01'0 0.0
2015-Jul-28 11:33N 40°42' W 074°01'0 0.1
2015-Jul-28 10:34N 40°42' W 074°01'4 4.2
2015-Jul-28 09:34N 40°39' W 074°04'0 0.0
2015-Jul-28 08:18N 40°39' W 074°04'0 0.0
2015-Jul-28 07:32N 40°39' W 074°04'0 0.0
2015-Jul-28 06:32N 40°39' W 074°04'0 0.0
2015-Jul-28 05:32N 40°39' W 074°04'0 0.0
2015-Jul-28 04:32N 40°39' W 074°04'0 0.0
2015-Jul-28 03:32N 40°39' W 074°04'0 0.0
2015-Jul-28 02:29N 40°39' W 074°04'0 0.1
2015-Jul-28 01:34N 40°39' W 074°04'4 4.2
2015-Jul-28 00:33N 40°42' W 074°01'4 4.0
2015-Jul-27 23:30N 40°39' W 074°04'0 0.0
2015-Jul-27 22:33N 40°39' W 074°04'0 0.0
2015-Jul-27 21:34N 40°39' W 074°04'4 4.3
2015-Jul-27 20:34N 40°42' W 074°01'0 0.1
2015-Jul-27 19:33N 40°42' W 074°01'4 4.3
2015-Jul-27 18:33N 40°39' W 074°04'0 0.0
2015-Jul-27 17:33N 40°39' W 074°04'0 0.0
2015-Jul-27 16:33N 40°39' W 074°04'0 0.1
2015-Jul-27 15:33N 40°39' W 074°04'0 0.0
2015-Jul-27 14:33N 40°39' W 074°04'4 4.2
2015-Jul-27 13:33N 40°42' W 074°01'0 0.0
2015-Jul-27 12:33N 40°42' W 074°01'0 0.0
2015-Jul-27 11:33N 40°42' W 074°01'0 0.1
2015-Jul-27 10:34N 40°42' W 074°01'4 4.2
2015-Jul-27 09:33N 40°39' W 074°04'0 0.0
2015-Jul-27 08:33N 40°39' W 074°04'0 0.0
2015-Jul-27 07:33N 40°39' W 074°04'0 0.0
2015-Jul-27 06:34N 40°39' W 074°04'0 0.0
2015-Jul-27 05:33N 40°39' W 074°04'0 0.0
2015-Jul-27 04:34N 40°39' W 074°04'0 0.0
2015-Jul-27 03:33N 40°39' W 074°04'0 0.0
2015-Jul-27 02:28N 40°39' W 074°04'0 0.0
2015-Jul-27 01:34N 40°39' W 074°04'0 0.1
2015-Jul-27 00:29N 40°39' W 074°04'0 0.0
2015-Jul-26 23:33N 40°39' W 074°04'0 0.0
2015-Jul-26 22:34N 40°39' W 074°04'0 0.4
2015-Jul-26 21:34N 40°39' W 074°04'4 3.9
2015-Jul-26 20:33N 40°42' W 074°01'4 4.2
2015-Jul-26 19:33N 40°39' W 074°04'0 0.1
2015-Jul-26 18:33N 40°39' W 074°04'4 4.2
2015-Jul-26 17:33N 40°42' W 074°01'4 4.3
2015-Jul-26 16:33N 40°39' W 074°04'0 0.1
2015-Jul-26 15:33N 40°39' W 074°04'0 0.1
2015-Jul-26 14:33N 40°39' W 074°04'0 0.0
2015-Jul-26 13:33N 40°39' W 074°04'0 0.0
2015-Jul-26 12:31N 40°39' W 074°04'0 0.0
2015-Jul-26 11:31N 40°39' W 074°04'0 0.0
2015-Jul-26 10:31N 40°39' W 074°04'0 0.0
2015-Jul-26 09:31N 40°39' W 074°04'0 0.0
2015-Jul-26 08:31N 40°39' W 074°04'0 0.0
2015-Jul-26 07:31N 40°39' W 074°04'0 0.0
2015-Jul-26 06:31N 40°39' W 074°04'0 0.0
2015-Jul-26 05:31N 40°39' W 074°04'0 0.0
2015-Jul-26 04:31N 40°39' W 074°04'0 0.0
2015-Jul-26 03:31N 40°39' W 074°04'0 0.0
2015-Jul-26 02:31N 40°39' W 074°04'0 0.0
2015-Jul-26 01:33N 40°39' W 074°04'0 0.0
2015-Jul-26 00:33N 40°39' W 074°04'0 0.4
2015-Jul-25 23:33N 40°39' W 074°04'4 4.0
2015-Jul-25 22:34N 40°42' W 074°01'0 0.0
2015-Jul-25 21:34N 40°42' W 074°01'4 4.3
2015-Jul-25 20:33N 40°39' W 074°04'0 0.1
2015-Jul-25 19:34N 40°39' W 074°04'0 0.3
2015-Jul-25 18:33N 40°39' W 074°04'4 4.0
2015-Jul-25 17:34N 40°42' W 074°01'4 4.3
2015-Jul-25 16:33N 40°39' W 074°04'0 0.1
2015-Jul-25 15:33N 40°39' W 074°04'0 0.1
2015-Jul-25 14:33N 40°39' W 074°04'0 0.0
2015-Jul-25 13:32N 40°39' W 074°04'0 0.0
2015-Jul-25 12:32N 40°39' W 074°04'0 0.0
2015-Jul-25 11:32N 40°39' W 074°04'0 0.0
2015-Jul-25 10:32N 40°39' W 074°04'0 0.0
2015-Jul-25 09:32N 40°39' W 074°04'0 0.0
2015-Jul-25 08:32N 40°39' W 074°04'0 0.0
2015-Jul-25 07:32N 40°39' W 074°04'0 0.0
2015-Jul-25 06:29N 40°39' W 074°04'0 0.0
2015-Jul-25 05:32N 40°39' W 074°04'0 0.0
2015-Jul-25 04:32N 40°39' W 074°04'0 0.0
2015-Jul-25 03:32N 40°39' W 074°04'0 0.0
2015-Jul-25 02:32N 40°39' W 074°04'0 0.0
2015-Jul-25 01:32N 40°39' W 074°04'0 0.1
2015-Jul-25 00:33N 40°39' W 074°04'4 4.3
2015-Jul-24 23:33N 40°42' W 074°01'0 0.1
2015-Jul-24 22:33N 40°42' W 074°01'0 0.1
2015-Jul-24 21:34N 40°42' W 074°01'2 2.0
2015-Jul-24 20:34N 40°40' W 074°03'2 2.2
2015-Jul-24 19:33N 40°39' W 074°04'0 0.0
2015-Jul-24 18:34N 40°39' W 074°04'0 0.3
2015-Jul-24 17:34N 40°39' W 074°04'0 0.3
2015-Jul-24 16:34N 40°39' W 074°04'0 0.0
2015-Jul-24 15:34N 40°39' W 074°04'4 4.3
2015-Jul-24 14:34N 40°42' W 074°01'4 4.3
2015-Jul-24 13:34N 40°39' W 074°04'3 3.1
2015-Jul-24 12:33N 40°41' W 074°02'0 0.3
2015-Jul-24 11:33N 40°41' W 074°02'  
Track history (hours):
 
Tides and Currents Weather Stations Pressure Air Temp Water Temp Dewpoint Dewpoint Depression Visibility Wind Speed Wind Dir Waves Ship Positions

Andrew J. Barberi

Owner: CITY OF NEW YORK, Brooklyn, NY. More information available from US FCC via Universal Licensing System and Coast Guard Vessel Documentation Center.

Last reported at 2015-Aug-03 10:33 UTC. Time now 2015-Aug-03 10:40 UTC.
Position N 40°42' W 074°01'.

Length 94 m; draft 4.3 m.

Type: Ship. MMSI: 367000150.

Date/timePositionNaut miles runAvg speedWind from/ knotsBaromVisibWave heightAir tempDewpointWater temp
2015-Aug-03 10:33N 40°42' W 074°01'4 4.2
2015-Aug-03 09:33N 40°39' W 074°04'0 0.0
2015-Aug-03 08:32N 40°39' W 074°04'0 0.0
2015-Aug-03 07:33N 40°39' W 074°04'0 0.0
2015-Aug-03 06:33N 40°39' W 074°04'0 0.0
2015-Aug-03 05:33N 40°39' W 074°04'0 0.0
2015-Aug-03 04:33N 40°39' W 074°04'0 0.0
2015-Aug-03 03:33N 40°39' W 074°04'0 0.0
2015-Aug-03 02:33N 40°39' W 074°04'0 0.0
2015-Aug-03 01:33N 40°39' W 074°04'0 0.0
2015-Aug-03 00:33N 40°39' W 074°04'0 0.2
2015-Aug-02 23:34N 40°39' W 074°04'0 0.1
2015-Aug-02 22:33N 40°39' W 074°04'0 0.0
2015-Aug-02 21:34N 40°39' W 074°04'4 4.2
2015-Aug-02 20:33N 40°42' W 074°01'4 4.3
2015-Aug-02 19:33N 40°39' W 074°04'0 0.1
2015-Aug-02 18:33N 40°39' W 074°04'4 4.2
2015-Aug-02 17:33N 40°42' W 074°01'4 4.3
2015-Aug-02 16:33N 40°39' W 074°04'0 0.1
2015-Aug-02 15:33N 40°39' W 074°04'0 0.1
2015-Aug-02 14:33N 40°39' W 074°04'0 0.0
2015-Aug-02 13:33N 40°39' W 074°04'0 0.0
2015-Aug-02 12:33N 40°39' W 074°04'0 0.0
2015-Aug-02 11:33N 40°39' W 074°04'0 0.0
2015-Aug-02 10:33N 40°39' W 074°04'0 0.0
2015-Aug-02 09:33N 40°39' W 074°04'0 0.0
2015-Aug-02 08:33N 40°39' W 074°04'0 0.0
2015-Aug-02 07:33N 40°39' W 074°04'0 0.0
2015-Aug-02 06:33N 40°39' W 074°04'0 0.0
2015-Aug-02 05:33N 40°39' W 074°04'0 0.0
2015-Aug-02 04:33N 40°39' W 074°04'0 0.0
2015-Aug-02 03:33N 40°39' W 074°04'0 0.0
2015-Aug-02 02:33N 40°39' W 074°04'0 0.0
2015-Aug-02 01:33N 40°39' W 074°04'0 0.2
2015-Aug-02 00:34N 40°39' W 074°04'0 0.2
2015-Aug-01 23:33N 40°39' W 074°04'0 0.0
2015-Aug-01 22:33N 40°39' W 074°04'0 0.2
2015-Aug-01 21:33N 40°39' W 074°04'0 0.1
2015-Aug-01 20:33N 40°39' W 074°04'0 0.1
2015-Aug-01 19:33N 40°39' W 074°04'0 0.0
2015-Aug-01 18:33N 40°39' W 074°04'4 4.2
2015-Aug-01 17:33N 40°42' W 074°01'4 4.3
2015-Aug-01 16:33N 40°39' W 074°04'0 0.1
2015-Aug-01 15:34N 40°39' W 074°04'0 0.2
2015-Aug-01 14:34N 40°39' W 074°04'0 0.0
2015-Aug-01 13:33N 40°39' W 074°04'0 0.0
2015-Aug-01 12:33N 40°39' W 074°04'0 0.0
2015-Aug-01 11:33N 40°39' W 074°04'0 0.0
2015-Aug-01 10:33N 40°39' W 074°04'0 0.0
2015-Aug-01 09:33N 40°39' W 074°04'0 0.0
2015-Aug-01 08:33N 40°39' W 074°04'0 0.0
2015-Aug-01 07:33N 40°39' W 074°04'0 0.0
2015-Aug-01 06:33N 40°39' W 074°04'0 0.0
2015-Aug-01 05:33N 40°39' W 074°04'0 0.0
2015-Aug-01 04:33N 40°39' W 074°04'0 0.0
2015-Aug-01 03:33N 40°39' W 074°04'0 0.0
2015-Aug-01 02:33N 40°39' W 074°04'0 0.0
2015-Aug-01 01:33N 40°39' W 074°04'0 0.1
2015-Aug-01 00:33N 40°39' W 074°04'4 4.0
2015-Jul-31 23:28N 40°42' W 074°01'0 0.0
2015-Jul-31 22:28N 40°42' W 074°01'0 0.1
2015-Jul-31 21:33N 40°42' W 074°01'1 1.2
2015-Jul-31 20:33N 40°41' W 074°02'3 3.1
2015-Jul-31 19:34N 40°39' W 074°04'0 0.1
2015-Jul-31 18:33N 40°39' W 074°04'0 0.1
2015-Jul-31 17:33N 40°39' W 074°04'0 0.1
2015-Jul-31 16:34N 40°39' W 074°04'0 0.2
2015-Jul-31 15:34N 40°39' W 074°04'0 0.0
2015-Jul-31 14:33N 40°39' W 074°04'4 3.9
2015-Jul-31 13:33N 40°42' W 074°01'0 0.1
2015-Jul-31 12:34N 40°42' W 074°01'0 0.1
2015-Jul-31 11:34N 40°42' W 074°01'0 0.1
2015-Jul-31 10:34N 40°42' W 074°01'4 4.2
2015-Jul-31 09:33N 40°39' W 074°04'0 0.0
2015-Jul-31 08:33N 40°39' W 074°04'0 0.0
2015-Jul-31 07:32N 40°39' W 074°04'0 0.0
2015-Jul-31 06:32N 40°39' W 074°04'0 0.0
2015-Jul-31 05:32N 40°39' W 074°04'0 0.0
2015-Jul-31 04:32N 40°39' W 074°04'0 0.0
2015-Jul-31 03:32N 40°39' W 074°04'0 0.0
2015-Jul-31 02:32N 40°39' W 074°04'4 2.2
2015-Jul-31 00:33N 40°42' W 074°01'4 4.3
2015-Jul-30 23:33N 40°39' W 074°04'0 0.1
2015-Jul-30 22:31N 40°39' W 074°04'0 0.0
2015-Jul-30 21:33N 40°39' W 074°04'4 4.3
2015-Jul-30 20:33N 40°42' W 074°01'0 0.1
2015-Jul-30 19:33N 40°42' W 074°01'4 2.1
2015-Jul-30 17:33N 40°39' W 074°04'4 4.2
2015-Jul-30 16:33N 40°42' W 074°01'0 0.0
2015-Jul-30 15:33N 40°42' W 074°01'4 4.3
2015-Jul-30 14:33N 40°39' W 074°04'4 4.3
2015-Jul-30 13:34N 40°42' W 074°01'0 0.0
2015-Jul-30 12:33N 40°42' W 074°01'0 0.1
2015-Jul-30 11:34N 40°42' W 074°01'0 0.0
2015-Jul-30 10:33N 40°42' W 074°01'4 4.1
2015-Jul-30 09:33N 40°39' W 074°04'0 0.0
2015-Jul-30 07:31N 40°39' W 074°04'0 0.0
2015-Jul-30 06:31N 40°39' W 074°04'0 0.0
2015-Jul-30 05:31N 40°39' W 074°04'0 0.0
2015-Jul-30 04:31N 40°39' W 074°04'0 0.0
2015-Jul-30 03:31N 40°39' W 074°04'0 0.0
2015-Jul-30 02:31N 40°39' W 074°04'0 0.0
2015-Jul-30 01:33N 40°39' W 074°04'4 4.3
2015-Jul-30 00:33N 40°42' W 074°01'4 2.0
2015-Jul-29 22:26N 40°39' W 074°04'0 0.1
2015-Jul-29 21:34N 40°39' W 074°04'4 4.3
2015-Jul-29 20:34N 40°42' W 074°01'0 0.0
2015-Jul-29 19:33N 40°42' W 074°01'4 4.3
2015-Jul-29 18:33N 40°39' W 074°04'0 0.2
2015-Jul-29 17:33N 40°39' W 074°04'4 4.2
2015-Jul-29 16:34N 40°42' W 074°01'0 0.0
2015-Jul-29 15:34N 40°42' W 074°01'4 4.3
2015-Jul-29 14:33N 40°39' W 074°04'4 4.3
2015-Jul-29 13:34N 40°42' W 074°01'0 0.0
2015-Jul-29 12:33N 40°42' W 074°01'0 0.1
2015-Jul-29 11:33N 40°42' W 074°01'0 0.0
2015-Jul-29 10:33N 40°42' W 074°01'4 4.4
2015-Jul-29 09:34N 40°38' W 074°04'1 0.7
2015-Jul-29 08:33N 40°39' W 074°04'0 0.0
2015-Jul-29 07:33N 40°39' W 074°04'0 0.0
2015-Jul-29 06:33N 40°39' W 074°04'0 0.0
2015-Jul-29 05:33N 40°39' W 074°04'0 0.0
2015-Jul-29 04:33N 40°39' W 074°04'0 0.0
2015-Jul-29 03:33N 40°39' W 074°04'0 0.0
2015-Jul-29 02:33N 40°39' W 074°04'0 0.0
2015-Jul-29 01:33N 40°39' W 074°04'4 4.2
2015-Jul-29 00:34N 40°42' W 074°01'4 4.2
2015-Jul-28 23:33N 40°39' W 074°04'0 0.0
2015-Jul-28 22:29N 40°39' W 074°04'0 0.1
2015-Jul-28 21:29N 40°39' W 074°04'4 4.6
2015-Jul-28 20:34N 40°42' W 074°01'0 0.0
2015-Jul-28 19:33N 40°42' W 074°01'4 3.9
2015-Jul-28 18:27N 40°39' W 074°04'0 0.2
2015-Jul-28 17:33N 40°39' W 074°04'4 4.1
2015-Jul-28 16:33N 40°42' W 074°01'4 4.3
2015-Jul-28 15:33N 40°39' W 074°04'0 0.1
2015-Jul-28 14:33N 40°39' W 074°04'4 4.2
2015-Jul-28 13:33N 40°42' W 074°01'0 0.0
2015-Jul-28 12:34N 40°42' W 074°01'0 0.0
2015-Jul-28 11:33N 40°42' W 074°01'0 0.1
2015-Jul-28 10:34N 40°42' W 074°01'4 4.2
2015-Jul-28 09:34N 40°39' W 074°04'0 0.0
2015-Jul-28 08:18N 40°39' W 074°04'0 0.0
2015-Jul-28 07:32N 40°39' W 074°04'0 0.0
2015-Jul-28 06:32N 40°39' W 074°04'0 0.0
2015-Jul-28 05:32N 40°39' W 074°04'0 0.0
2015-Jul-28 04:32N 40°39' W 074°04'0 0.0
2015-Jul-28 03:32N 40°39' W 074°04'0 0.0
2015-Jul-28 02:29N 40°39' W 074°04'0 0.1
2015-Jul-28 01:34N 40°39' W 074°04'4 4.2
2015-Jul-28 00:33N 40°42' W 074°01'4 4.0
2015-Jul-27 23:30N 40°39' W 074°04'0 0.0
2015-Jul-27 22:33N 40°39' W 074°04'0 0.0
2015-Jul-27 21:34N 40°39' W 074°04'4 4.3
2015-Jul-27 20:34N 40°42' W 074°01'0 0.1
2015-Jul-27 19:33N 40°42' W 074°01'4 4.3
2015-Jul-27 18:33N 40°39' W 074°04'0 0.0
2015-Jul-27 17:33N 40°39' W 074°04'0 0.0
2015-Jul-27 16:33N 40°39' W 074°04'0 0.1
2015-Jul-27 15:33N 40°39' W 074°04'0 0.0
2015-Jul-27 14:33N 40°39' W 074°04'4 4.2
2015-Jul-27 13:33N 40°42' W 074°01'0 0.0
2015-Jul-27 12:33N 40°42' W 074°01'0 0.0
2015-Jul-27 11:33N 40°42' W 074°01'0 0.1
2015-Jul-27 10:34N 40°42' W 074°01'4 4.2
2015-Jul-27 09:33N 40°39' W 074°04'0 0.0
2015-Jul-27 08:33N 40°39' W 074°04'0 0.0
2015-Jul-27 07:33N 40°39' W 074°04'0 0.0
2015-Jul-27 06:34N 40°39' W 074°04'0 0.0
2015-Jul-27 05:33N 40°39' W 074°04'0 0.0
2015-Jul-27 04:34N 40°39' W 074°04'0 0.0
2015-Jul-27 03:33N 40°39' W 074°04'0 0.0
2015-Jul-27 02:28N 40°39' W 074°04'0 0.0
2015-Jul-27 01:34N 40°39' W 074°04'0 0.1
2015-Jul-27 00:29N 40°39' W 074°04'0 0.0
2015-Jul-26 23:33N 40°39' W 074°04'0 0.0
2015-Jul-26 22:34N 40°39' W 074°04'0 0.4
2015-Jul-26 21:34N 40°39' W 074°04'4 3.9
2015-Jul-26 20:33N 40°42' W 074°01'4 4.2
2015-Jul-26 19:33N 40°39' W 074°04'0 0.1
2015-Jul-26 18:33N 40°39' W 074°04'4 4.2
2015-Jul-26 17:33N 40°42' W 074°01'4 4.3
2015-Jul-26 16:33N 40°39' W 074°04'0 0.1
2015-Jul-26 15:33N 40°39' W 074°04'0 0.1
2015-Jul-26 14:33N 40°39' W 074°04'0 0.0
2015-Jul-26 13:33N 40°39' W 074°04'0 0.0
2015-Jul-26 12:31N 40°39' W 074°04'0 0.0
2015-Jul-26 11:31N 40°39' W 074°04'0 0.0
2015-Jul-26 10:31N 40°39' W 074°04'0 0.0
2015-Jul-26 09:31N 40°39' W 074°04'0 0.0
2015-Jul-26 08:31N 40°39' W 074°04'0 0.0
2015-Jul-26 07:31N 40°39' W 074°04'0 0.0
2015-Jul-26 06:31N 40°39' W 074°04'0 0.0
2015-Jul-26 05:31N 40°39' W 074°04'0 0.0
2015-Jul-26 04:31N 40°39' W 074°04'0 0.0
2015-Jul-26 03:31N 40°39' W 074°04'0 0.0
2015-Jul-26 02:31N 40°39' W 074°04'0 0.0
2015-Jul-26 01:33N 40°39' W 074°04'0 0.0
2015-Jul-26 00:33N 40°39' W 074°04'0 0.4
2015-Jul-25 23:33N 40°39' W 074°04'4 4.0
2015-Jul-25 22:34N 40°42' W 074°01'0 0.0
2015-Jul-25 21:34N 40°42' W 074°01'4 4.3
2015-Jul-25 20:33N 40°39' W 074°04'0 0.1
2015-Jul-25 19:34N 40°39' W 074°04'0 0.3
2015-Jul-25 18:33N 40°39' W 074°04'4 4.0
2015-Jul-25 17:34N 40°42' W 074°01'4 4.3
2015-Jul-25 16:33N 40°39' W 074°04'0 0.1
2015-Jul-25 15:33N 40°39' W 074°04'0 0.1
2015-Jul-25 14:33N 40°39' W 074°04'0 0.0
2015-Jul-25 13:32N 40°39' W 074°04'0 0.0
2015-Jul-25 12:32N 40°39' W 074°04'0 0.0
2015-Jul-25 11:32N 40°39' W 074°04'0 0.0
2015-Jul-25 10:32N 40°39' W 074°04'0 0.0
2015-Jul-25 09:32N 40°39' W 074°04'0 0.0
2015-Jul-25 08:32N 40°39' W 074°04'0 0.0
2015-Jul-25 07:32N 40°39' W 074°04'0 0.0
2015-Jul-25 06:29N 40°39' W 074°04'0 0.0
2015-Jul-25 05:32N 40°39' W 074°04'0 0.0
2015-Jul-25 04:32N 40°39' W 074°04'0 0.0
2015-Jul-25 03:32N 40°39' W 074°04'0 0.0
2015-Jul-25 02:32N 40°39' W 074°04'0 0.0
2015-Jul-25 01:32N 40°39' W 074°04'0 0.1
2015-Jul-25 00:33N 40°39' W 074°04'4 4.3
2015-Jul-24 23:33N 40°42' W 074°01'0 0.1
2015-Jul-24 22:33N 40°42' W 074°01'0 0.1
2015-Jul-24 21:34N 40°42' W 074°01'2 2.0
2015-Jul-24 20:34N 40°40' W 074°03'2 2.2
2015-Jul-24 19:33N 40°39' W 074°04'0 0.0
2015-Jul-24 18:34N 40°39' W 074°04'0 0.3
2015-Jul-24 17:34N 40°39' W 074°04'0 0.3
2015-Jul-24 16:34N 40°39' W 074°04'0 0.0
2015-Jul-24 15:34N 40°39' W 074°04'4 4.3
2015-Jul-24 14:34N 40°42' W 074°01'4 4.3
2015-Jul-24 13:34N 40°39' W 074°04'3 3.1
2015-Jul-24 12:33N 40°41' W 074°02'0 0.3
2015-Jul-24 11:33N 40°41' W 074°02'  

Dump ship's entire track history